Teoman A — TCA4008 — position and weather

sailwx.info

Track history (hours):
 
Tides and Currents Weather Stations Pressure Air Temp Water Temp Dewpoint Dewpoint Depression Visibility Wind Speed Wind Dir Waves Ship Positions

Teoman A

Last reported at 2018-Apr-21 16:59 UTC. Time now 2018-Apr-26 11:44 UTC.
Position N 37°27' E 016°22'.

Length 199 m; draft 9.3 m.

Type: Ship (hazmat cat A). MMSI: 271044450.

Date/timePositionNaut miles runAvg speedWind from/ knotsBaromVisibWave heightAir tempDewpointWater temp
2018-Apr-21 16:59N 37°27' E 016°22'813.9
2018-Apr-21 16:26N 37°31' E 016°14'614.0
2018-Apr-21 16:00N 37°34' E 016°07'713.9
2018-Apr-21 15:30N 37°37' E 015°59'713.7
2018-Apr-21 15:00N 37°40' E 015°52'814.2
2018-Apr-21 14:28N 37°44' E 015°43'1414.1
2018-Apr-21 13:26N 37°56' E 015°34'613.8
2018-Apr-21 12:59N 38°03' E 015°33'714.1
2018-Apr-21 12:31N 38°09' E 015°35'816.7
2018-Apr-21 12:01N 38°16' E 015°40'714.4
2018-Apr-21 11:30N 38°23' E 015°36'714.1
2018-Apr-21 11:01N 38°28' E 015°30'816.2
2018-Apr-21 10:31N 38°33' E 015°22'816.2
2018-Apr-21 10:01N 38°39' E 015°14'816.1
2018-Apr-21 09:30N 38°44' E 015°07'815.9
2018-Apr-21 08:59N 38°50' E 014°59'915.8
2018-Apr-21 08:26N 38°56' E 014°51'4816.1
2018-Apr-21 05:28N 39°28' E 014°05'716.3
2018-Apr-21 05:00N 39°33' E 013°57'816.2
2018-Apr-21 04:30N 39°38' E 013°50'816.0
2018-Apr-21 04:00N 39°43' E 013°42'815.7
2018-Apr-21 03:30N 39°49' E 013°34'815.9
2018-Apr-21 03:00N 39°54' E 013°27'816.1
2018-Apr-21 02:30N 39°59' E 013°19'816.1
2018-Apr-21 01:59N 40°05' E 013°11'816.0
2018-Apr-21 01:30N 40°10' E 013°03'816.0
2018-Apr-21 01:00N 40°15' E 012°55'816.2
2018-Apr-21 00:30N 40°21' E 012°48'18615.7
2018-Apr-20 12:41N 42°28' E 009°46'1315.4
2018-Apr-20 11:49N 42°41' E 009°41'515.8
2018-Apr-20 11:30N 42°46' E 009°40'815.9
2018-Apr-20 11:00N 42°54' E 009°38'816.1
2018-Apr-20 10:30N 43°02' E 009°35'816.0
2018-Apr-20 10:00N 43°09' E 009°33'816.2
2018-Apr-20 09:30N 43°17' E 009°32'816.1
2018-Apr-20 09:00N 43°25' E 009°29'815.8
2018-Apr-20 08:30N 43°33' E 009°28'815.4
2018-Apr-20 08:00N 43°40' E 009°25'815.6
2018-Apr-20 07:30N 43°47' E 009°20'815.2
2018-Apr-20 07:00N 43°54' E 009°15'815.2
2018-Apr-20 06:30N 44°01' E 009°10'815.3
2018-Apr-20 06:00N 44°08' E 009°05'815.6
2018-Apr-20 05:30N 44°15' E 009°01'714.8
2018-Apr-20 05:00N 44°22' E 008°57'3 6.7
2018-Apr-20 04:30N 44°24' E 008°54'0 0.0
2018-Apr-20 04:00N 44°24' E 008°54'0 0.0
2018-Apr-20 03:30N 44°24' E 008°54'0 0.0
2018-Apr-20 03:00N 44°24' E 008°54'0 0.0
2018-Apr-20 02:30N 44°24' E 008°54'0 0.0
2018-Apr-20 02:00N 44°24' E 008°54'0 0.0
2018-Apr-20 01:30N 44°24' E 008°54'0 0.0
2018-Apr-20 01:00N 44°24' E 008°54'0 0.0
2018-Apr-20 00:30N 44°24' E 008°54'0 0.0
2018-Apr-20 00:00N 44°24' E 008°54'0 0.0
2018-Apr-19 23:30N 44°24' E 008°54'0 0.0
2018-Apr-19 23:00N 44°24' E 008°54'0 0.0
2018-Apr-19 22:30N 44°24' E 008°54'0 0.0
2018-Apr-19 22:00N 44°24' E 008°54'0 0.0
2018-Apr-19 21:27N 44°24' E 008°54'0 0.0
2018-Apr-19 21:00N 44°24' E 008°54'0 0.0
2018-Apr-19 20:27N 44°24' E 008°54'0 0.0
2018-Apr-19 20:00N 44°24' E 008°54'0 0.0
2018-Apr-19 19:30N 44°24' E 008°54'0 0.0
2018-Apr-19 19:00N 44°24' E 008°54'0 0.0
2018-Apr-19 18:30N 44°24' E 008°54'2 3.2
2018-Apr-19 18:00N 44°24' E 008°56'1 2.6
2018-Apr-19 17:30N 44°22' E 008°56'0 0.8
2018-Apr-19 17:00N 44°22' E 008°55'0 0.7
2018-Apr-19 16:30N 44°22' E 008°55'0 0.0
2018-Apr-19 16:00N 44°22' E 008°55'0 0.0
2018-Apr-19 15:27N 44°22' E 008°55'0 0.0
2018-Apr-19 15:00N 44°22' E 008°55'0 0.0
2018-Apr-19 14:30N 44°22' E 008°55'0 0.0
2018-Apr-19 14:00N 44°22' E 008°55'0 0.0
2018-Apr-19 13:30N 44°22' E 008°55'0 0.2
2018-Apr-19 13:00N 44°22' E 008°55'0 0.2
2018-Apr-19 12:30N 44°22' E 008°55'0 0.2
2018-Apr-19 12:00N 44°22' E 008°55'0 0.0
2018-Apr-19 11:30N 44°22' E 008°55'0 0.1
2018-Apr-19 11:00N 44°22' E 008°55'0 0.0
2018-Apr-19 10:30N 44°22' E 008°55'0 0.1
2018-Apr-19 09:57N 44°22' E 008°55'0 0.1
2018-Apr-19 09:30N 44°22' E 008°55'0 0.0
2018-Apr-19 09:00N 44°22' E 008°55'0 0.1
2018-Apr-19 08:30N 44°22' E 008°55'0 0.1
2018-Apr-19 08:00N 44°22' E 008°55'0 0.7
2018-Apr-19 07:31N 44°22' E 008°55'4 7.9
2018-Apr-19 07:01N 44°18' E 008°56'510.6
2018-Apr-19 06:30N 44°13' E 008°56'5 9.7
2018-Apr-19 06:01N 44°10' E 008°51'510.5
2018-Apr-19 05:31N 44°05' E 008°47'511.0
2018-Apr-19 05:01N 44°00' E 008°43'610.9
2018-Apr-19 04:30N 43°56' E 008°38'510.5
2018-Apr-19 04:00N 43°52' E 008°34'510.4
2018-Apr-19 03:30N 43°48' E 008°30'510.6
2018-Apr-19 03:01N 43°43' E 008°26'511.0
2018-Apr-19 02:31N 43°39' E 008°21'611.0
2018-Apr-19 02:01N 43°34' E 008°17'611.3
2018-Apr-19 01:30N 43°30' E 008°12'611.0
2018-Apr-19 00:59N 43°25' E 008°08'510.9
2018-Apr-19 00:30N 43°20' E 008°04'29411.8
2018-Apr-17 23:41N 40°14' E 002°58'316.7
2018-Apr-17 23:30N 40°13' E 002°55'19416.3
2018-Apr-17 11:39N 38°00' W 000°07'216.5
2018-Apr-17 11:30N 37°58' W 000°09'816.4
2018-Apr-17 11:00N 37°52' W 000°15'816.5
2018-Apr-17 10:30N 37°45' W 000°21'816.7
2018-Apr-17 10:00N 37°38' W 000°27'816.7
2018-Apr-17 09:30N 37°32' W 000°33'816.9
2018-Apr-17 09:00N 37°26' W 000°41'816.4
2018-Apr-17 08:30N 37°20' W 000°49'816.3
2018-Apr-17 08:00N 37°15' W 000°57'816.1
2018-Apr-17 07:30N 37°10' W 001°04'21913.3
2018-Apr-16 15:02N 36°09' W 005°26'0 0.0
2018-Apr-16 14:32N 36°09' W 005°26'0 0.0
2018-Apr-16 14:26N 36°09' W 005°26'0 0.0
2018-Apr-16 10:23N 36°09' W 005°26'0 0.0
2018-Apr-16 09:59N 36°09' W 005°26'0 0.0
2018-Apr-16 09:05N 36°09' W 005°26'0 0.0
2018-Apr-16 07:56N 36°09' W 005°26'0 0.0
2018-Apr-16 07:26N 36°09' W 005°26'0 0.0
2018-Apr-16 06:56N 36°09' W 005°26'0 0.0
2018-Apr-16 06:29N 36°09' W 005°26'0 0.0
2018-Apr-16 05:38N 36°09' W 005°26'0 0.0
2018-Apr-16 05:26N 36°09' W 005°26'0 0.0
2018-Apr-16 04:56N 36°09' W 005°26'0 0.0
2018-Apr-16 04:29N 36°09' W 005°26'0 0.0
2018-Apr-16 03:59N 36°09' W 005°26'0 0.0
2018-Apr-16 03:29N 36°09' W 005°26'0 0.0
2018-Apr-16 02:59N 36°09' W 005°26'0 0.0
2018-Apr-16 02:26N 36°09' W 005°26'0 0.0
2018-Apr-16 01:56N 36°09' W 005°26'0 0.0
2018-Apr-16 01:08N 36°09' W 005°26'0 0.0
2018-Apr-16 00:59N 36°09' W 005°26'0 0.0
2018-Apr-16 00:26N 36°09' W 005°26'0 0.0
2018-Apr-15 23:59N 36°09' W 005°26'0 0.0
2018-Apr-15 23:26N 36°09' W 005°26'0 0.0
2018-Apr-15 22:56N 36°09' W 005°26'0 0.0
2018-Apr-15 22:30N 36°09' W 005°26'2 4.6
2018-Apr-15 22:00N 36°08' W 005°24'4 8.2
2018-Apr-15 21:30N 36°05' W 005°20'611.2
2018-Apr-15 21:00N 36°07' W 005°13'612.2
2018-Apr-15 20:30N 36°10' W 005°07'1 2.1
2018-Apr-15 20:00N 36°11' W 005°06'1 1.7
2018-Apr-15 19:25N 36°11' W 005°08'1 1.4
2018-Apr-15 19:00N 36°11' W 005°08'1 1.6
2018-Apr-15 18:30N 36°11' W 005°09'3 1.6
2018-Apr-15 16:27N 36°10' W 005°13'1 1.5
2018-Apr-15 15:52N 36°09' W 005°14'1 1.8
2018-Apr-15 15:19N 36°09' W 005°15'0 1.6
2018-Apr-15 15:00N 36°08' W 005°15'1 1.7
2018-Apr-15 14:30N 36°07' W 005°16'1 1.7
2018-Apr-15 14:00N 36°07' W 005°16'1 1.4
2018-Apr-15 13:30N 36°06' W 005°17'0 0.6
2018-Apr-15 13:00N 36°06' W 005°17'5 9.6
2018-Apr-15 12:31N 36°02' W 005°21'612.0
2018-Apr-15 12:00N 35°58' W 005°26'  
Track history (hours):
 
Tides and Currents Weather Stations Pressure Air Temp Water Temp Dewpoint Dewpoint Depression Visibility Wind Speed Wind Dir Waves Ship Positions

Teoman A

Last reported at 2018-Apr-21 16:59 UTC. Time now 2018-Apr-26 11:44 UTC.
Position N 37°27' E 016°22'.

Length 199 m; draft 9.3 m.

Type: Ship (hazmat cat A). MMSI: 271044450.

Date/timePositionNaut miles runAvg speedWind from/ knotsBaromVisibWave heightAir tempDewpointWater temp
2018-Apr-21 16:59N 37°27' E 016°22'813.9
2018-Apr-21 16:26N 37°31' E 016°14'614.0
2018-Apr-21 16:00N 37°34' E 016°07'713.9
2018-Apr-21 15:30N 37°37' E 015°59'713.7
2018-Apr-21 15:00N 37°40' E 015°52'814.2
2018-Apr-21 14:28N 37°44' E 015°43'1414.1
2018-Apr-21 13:26N 37°56' E 015°34'613.8
2018-Apr-21 12:59N 38°03' E 015°33'714.1
2018-Apr-21 12:31N 38°09' E 015°35'816.7
2018-Apr-21 12:01N 38°16' E 015°40'714.4
2018-Apr-21 11:30N 38°23' E 015°36'714.1
2018-Apr-21 11:01N 38°28' E 015°30'816.2
2018-Apr-21 10:31N 38°33' E 015°22'816.2
2018-Apr-21 10:01N 38°39' E 015°14'816.1
2018-Apr-21 09:30N 38°44' E 015°07'815.9
2018-Apr-21 08:59N 38°50' E 014°59'915.8
2018-Apr-21 08:26N 38°56' E 014°51'4816.1
2018-Apr-21 05:28N 39°28' E 014°05'716.3
2018-Apr-21 05:00N 39°33' E 013°57'816.2
2018-Apr-21 04:30N 39°38' E 013°50'816.0
2018-Apr-21 04:00N 39°43' E 013°42'815.7
2018-Apr-21 03:30N 39°49' E 013°34'815.9
2018-Apr-21 03:00N 39°54' E 013°27'816.1
2018-Apr-21 02:30N 39°59' E 013°19'816.1
2018-Apr-21 01:59N 40°05' E 013°11'816.0
2018-Apr-21 01:30N 40°10' E 013°03'816.0
2018-Apr-21 01:00N 40°15' E 012°55'816.2
2018-Apr-21 00:30N 40°21' E 012°48'18615.7
2018-Apr-20 12:41N 42°28' E 009°46'1315.4
2018-Apr-20 11:49N 42°41' E 009°41'515.8
2018-Apr-20 11:30N 42°46' E 009°40'815.9
2018-Apr-20 11:00N 42°54' E 009°38'816.1
2018-Apr-20 10:30N 43°02' E 009°35'816.0
2018-Apr-20 10:00N 43°09' E 009°33'816.2
2018-Apr-20 09:30N 43°17' E 009°32'816.1
2018-Apr-20 09:00N 43°25' E 009°29'815.8
2018-Apr-20 08:30N 43°33' E 009°28'815.4
2018-Apr-20 08:00N 43°40' E 009°25'815.6
2018-Apr-20 07:30N 43°47' E 009°20'815.2
2018-Apr-20 07:00N 43°54' E 009°15'815.2
2018-Apr-20 06:30N 44°01' E 009°10'815.3
2018-Apr-20 06:00N 44°08' E 009°05'815.6
2018-Apr-20 05:30N 44°15' E 009°01'714.8
2018-Apr-20 05:00N 44°22' E 008°57'3 6.7
2018-Apr-20 04:30N 44°24' E 008°54'0 0.0
2018-Apr-20 04:00N 44°24' E 008°54'0 0.0
2018-Apr-20 03:30N 44°24' E 008°54'0 0.0
2018-Apr-20 03:00N 44°24' E 008°54'0 0.0
2018-Apr-20 02:30N 44°24' E 008°54'0 0.0
2018-Apr-20 02:00N 44°24' E 008°54'0 0.0
2018-Apr-20 01:30N 44°24' E 008°54'0 0.0
2018-Apr-20 01:00N 44°24' E 008°54'0 0.0
2018-Apr-20 00:30N 44°24' E 008°54'0 0.0
2018-Apr-20 00:00N 44°24' E 008°54'0 0.0
2018-Apr-19 23:30N 44°24' E 008°54'0 0.0
2018-Apr-19 23:00N 44°24' E 008°54'0 0.0
2018-Apr-19 22:30N 44°24' E 008°54'0 0.0
2018-Apr-19 22:00N 44°24' E 008°54'0 0.0
2018-Apr-19 21:27N 44°24' E 008°54'0 0.0
2018-Apr-19 21:00N 44°24' E 008°54'0 0.0
2018-Apr-19 20:27N 44°24' E 008°54'0 0.0
2018-Apr-19 20:00N 44°24' E 008°54'0 0.0
2018-Apr-19 19:30N 44°24' E 008°54'0 0.0
2018-Apr-19 19:00N 44°24' E 008°54'0 0.0
2018-Apr-19 18:30N 44°24' E 008°54'2 3.2
2018-Apr-19 18:00N 44°24' E 008°56'1 2.6
2018-Apr-19 17:30N 44°22' E 008°56'0 0.8
2018-Apr-19 17:00N 44°22' E 008°55'0 0.7
2018-Apr-19 16:30N 44°22' E 008°55'0 0.0
2018-Apr-19 16:00N 44°22' E 008°55'0 0.0
2018-Apr-19 15:27N 44°22' E 008°55'0 0.0
2018-Apr-19 15:00N 44°22' E 008°55'0 0.0
2018-Apr-19 14:30N 44°22' E 008°55'0 0.0
2018-Apr-19 14:00N 44°22' E 008°55'0 0.0
2018-Apr-19 13:30N 44°22' E 008°55'0 0.2
2018-Apr-19 13:00N 44°22' E 008°55'0 0.2
2018-Apr-19 12:30N 44°22' E 008°55'0 0.2
2018-Apr-19 12:00N 44°22' E 008°55'0 0.0
2018-Apr-19 11:30N 44°22' E 008°55'0 0.1
2018-Apr-19 11:00N 44°22' E 008°55'0 0.0
2018-Apr-19 10:30N 44°22' E 008°55'0 0.1
2018-Apr-19 09:57N 44°22' E 008°55'0 0.1
2018-Apr-19 09:30N 44°22' E 008°55'0 0.0
2018-Apr-19 09:00N 44°22' E 008°55'0 0.1
2018-Apr-19 08:30N 44°22' E 008°55'0 0.1
2018-Apr-19 08:00N 44°22' E 008°55'0 0.7
2018-Apr-19 07:31N 44°22' E 008°55'4 7.9
2018-Apr-19 07:01N 44°18' E 008°56'510.6
2018-Apr-19 06:30N 44°13' E 008°56'5 9.7
2018-Apr-19 06:01N 44°10' E 008°51'510.5
2018-Apr-19 05:31N 44°05' E 008°47'511.0
2018-Apr-19 05:01N 44°00' E 008°43'610.9
2018-Apr-19 04:30N 43°56' E 008°38'510.5
2018-Apr-19 04:00N 43°52' E 008°34'510.4
2018-Apr-19 03:30N 43°48' E 008°30'510.6
2018-Apr-19 03:01N 43°43' E 008°26'511.0
2018-Apr-19 02:31N 43°39' E 008°21'611.0
2018-Apr-19 02:01N 43°34' E 008°17'611.3
2018-Apr-19 01:30N 43°30' E 008°12'611.0
2018-Apr-19 00:59N 43°25' E 008°08'510.9
2018-Apr-19 00:30N 43°20' E 008°04'29411.8
2018-Apr-17 23:41N 40°14' E 002°58'316.7
2018-Apr-17 23:30N 40°13' E 002°55'19416.3
2018-Apr-17 11:39N 38°00' W 000°07'216.5
2018-Apr-17 11:30N 37°58' W 000°09'816.4
2018-Apr-17 11:00N 37°52' W 000°15'816.5
2018-Apr-17 10:30N 37°45' W 000°21'816.7
2018-Apr-17 10:00N 37°38' W 000°27'816.7
2018-Apr-17 09:30N 37°32' W 000°33'816.9
2018-Apr-17 09:00N 37°26' W 000°41'816.4
2018-Apr-17 08:30N 37°20' W 000°49'816.3
2018-Apr-17 08:00N 37°15' W 000°57'816.1
2018-Apr-17 07:30N 37°10' W 001°04'21913.3
2018-Apr-16 15:02N 36°09' W 005°26'0 0.0
2018-Apr-16 14:32N 36°09' W 005°26'0 0.0
2018-Apr-16 14:26N 36°09' W 005°26'0 0.0
2018-Apr-16 10:23N 36°09' W 005°26'0 0.0
2018-Apr-16 09:59N 36°09' W 005°26'0 0.0
2018-Apr-16 09:05N 36°09' W 005°26'0 0.0
2018-Apr-16 07:56N 36°09' W 005°26'0 0.0
2018-Apr-16 07:26N 36°09' W 005°26'0 0.0
2018-Apr-16 06:56N 36°09' W 005°26'0 0.0
2018-Apr-16 06:29N 36°09' W 005°26'0 0.0
2018-Apr-16 05:38N 36°09' W 005°26'0 0.0
2018-Apr-16 05:26N 36°09' W 005°26'0 0.0
2018-Apr-16 04:56N 36°09' W 005°26'0 0.0
2018-Apr-16 04:29N 36°09' W 005°26'0 0.0
2018-Apr-16 03:59N 36°09' W 005°26'0 0.0
2018-Apr-16 03:29N 36°09' W 005°26'0 0.0
2018-Apr-16 02:59N 36°09' W 005°26'0 0.0
2018-Apr-16 02:26N 36°09' W 005°26'0 0.0
2018-Apr-16 01:56N 36°09' W 005°26'0 0.0
2018-Apr-16 01:08N 36°09' W 005°26'0 0.0
2018-Apr-16 00:59N 36°09' W 005°26'0 0.0
2018-Apr-16 00:26N 36°09' W 005°26'0 0.0
2018-Apr-15 23:59N 36°09' W 005°26'0 0.0
2018-Apr-15 23:26N 36°09' W 005°26'0 0.0
2018-Apr-15 22:56N 36°09' W 005°26'0 0.0
2018-Apr-15 22:30N 36°09' W 005°26'2 4.6
2018-Apr-15 22:00N 36°08' W 005°24'4 8.2
2018-Apr-15 21:30N 36°05' W 005°20'611.2
2018-Apr-15 21:00N 36°07' W 005°13'612.2
2018-Apr-15 20:30N 36°10' W 005°07'1 2.1
2018-Apr-15 20:00N 36°11' W 005°06'1 1.7
2018-Apr-15 19:25N 36°11' W 005°08'1 1.4
2018-Apr-15 19:00N 36°11' W 005°08'1 1.6
2018-Apr-15 18:30N 36°11' W 005°09'3 1.6
2018-Apr-15 16:27N 36°10' W 005°13'1 1.5
2018-Apr-15 15:52N 36°09' W 005°14'1 1.8
2018-Apr-15 15:19N 36°09' W 005°15'0 1.6
2018-Apr-15 15:00N 36°08' W 005°15'1 1.7
2018-Apr-15 14:30N 36°07' W 005°16'1 1.7
2018-Apr-15 14:00N 36°07' W 005°16'1 1.4
2018-Apr-15 13:30N 36°06' W 005°17'0 0.6
2018-Apr-15 13:00N 36°06' W 005°17'5 9.6
2018-Apr-15 12:31N 36°02' W 005°21'612.0
2018-Apr-15 12:00N 35°58' W 005°26'  

Dump ship's entire track history